Airfield :
LOGIN :

Register | Disclaimer

   EN    FR    IT 

 










Legend :    VFR   Marginal VFR   IFR   Intensive IFR   Very Intensive IFR
Visi :
Ceiling :
>= 8 km
>= 3000ft
5 to 8 km
1000 to 3000 ft
1500m to 5 km
500 to 1000 ft
800 to 1500m
200 to 500 ft
< 800m
< 200 ft
Symbols :   Thunderstorms  Fog  Heavy snow  Heavy precipitations  Wind > 20 kt
SIGMETs :     Misc.  Thunderstorms  Icing  Turbulence  Mountain Waves  Volcanic Ashes







- Airport Elevation : 184 ft
- IATA code : BRU


EBBR - Bruxelles

CURRENT METAR :
  • 170520Z 19009KT CAVOK 17/13 Q1015 NOSIG

EXPIRED METARs :
  • 170450Z 18009KT CAVOK 17/13 Q1015 NOSIG
  • 170420Z 17010KT 9999 FEW038 17/12 Q1015 NOSIG
  • 170350Z 17010KT 9999 FEW038 17/12 Q1015 NOSIG
  • 170320Z 17009KT 9999 SCT038 17/11 Q1016 NOSIG
  • 170250Z 16008KT 9999 BKN038 18/11 Q1016 NOSIG

TAF TAF EBBR
Valid from the 17 at 06:00 until the 18 at 12:00 UTC


170520Z 1706/1812 20010KT 9999 SCT042
PROB40
TEMPO 1710/1724 4000 RA SHRA BKN013CB
PROB30
TEMPO 1719/1802 2500 TSRA
PROB30
TEMPO 1800/1812 4000 SHRA SCT008 BKN013CB
No reported NOTAMs for that airfield.



MET'MAP, your aeronautical weather chart ! - Copyright ORBIFLY December 2007 - Disclaimer

ORBIFLY MET'MAP TEAM :

Programming & Development : Alexandra Zaïnal
Concept & Development : Baudouin d'Aumeries
Co-Development & Prog : Marc-Olivier Méhu
Technical & hardware support : Manuel Goepfert

Contact : metmap@orbifly.com




SOURCES & CREDITS :

   NOAA